createdAt,value
2018-05-25T00:02:00.008Z,70.70
2018-05-25T00:04:28.334Z,72.00
2018-05-25T00:06:55.909Z,72.00
2018-05-25T00:09:24.228Z,73.70
2018-05-25T00:11:51.792Z,73.80
2018-05-25T00:14:19.348Z,72.30
2018-05-25T00:16:46.904Z,72.90
2018-05-25T00:19:14.488Z,72.20
2018-05-25T00:21:42.047Z,72.80
2018-05-25T00:24:09.601Z,73.80
2018-05-25T00:26:37.156Z,73.40
2018-05-25T00:29:04.716Z,73.30
2018-05-25T00:31:32.305Z,75.80
2018-05-25T00:33:59.858Z,75.00
2018-05-25T00:36:27.409Z,74.60
2018-05-25T00:38:54.960Z,74.70
2018-05-25T00:41:22.508Z,74.10
2018-05-25T00:43:50.087Z,74.90
2018-05-25T00:46:17.638Z,77.00
2018-05-25T00:48:45.192Z,76.10
2018-05-25T00:51:12.756Z,75.60
2018-05-25T00:53:40.313Z,76.60
2018-05-25T00:56:07.871Z,76.30
2018-05-25T00:58:35.432Z,76.30
2018-05-25T01:01:03.022Z,76.10
2018-05-25T01:03:31.421Z,77.30
2018-05-25T01:05:58.981Z,76.70
2018-05-25T01:08:26.529Z,77.00
2018-05-25T01:10:54.843Z,77.20
2018-05-25T01:13:22.428Z,77.10
2018-05-25T01:15:49.973Z,76.60
2018-05-25T01:18:17.523Z,76.60
2018-05-25T01:20:45.074Z,76.00
2018-05-25T01:23:12.624Z,77.40
2018-05-25T01:25:40.205Z,77.80
2018-05-25T01:28:07.753Z,78.10
2018-05-25T01:30:35.301Z,78.50
2018-05-25T01:33:02.878Z,78.30
2018-05-25T01:35:30.436Z,78.10
2018-05-25T01:37:58.008Z,80.00
2018-05-25T01:40:25.556Z,78.70
2018-05-25T01:42:53.101Z,78.90
2018-05-25T01:45:20.660Z,77.60
2018-05-25T01:47:48.212Z,77.70
2018-05-25T01:50:15.783Z,77.50
2018-05-25T01:52:43.332Z,77.70
2018-05-25T01:55:10.877Z,77.40
2018-05-25T01:57:38.425Z,80.70
2018-05-25T02:00:05.997Z,79.00
2018-05-25T02:02:34.347Z,81.00
2018-05-25T02:05:01.901Z,80.30
2018-05-25T02:07:29.456Z,80.30
2018-05-25T02:09:57.016Z,79.20
2018-05-25T02:12:24.583Z,80.50
2018-05-25T02:14:52.161Z,80.20
2018-05-25T02:17:19.707Z,80.30
2018-05-25T02:19:47.290Z,82.10
2018-05-25T02:22:14.838Z,81.00
2018-05-25T02:24:42.391Z,80.40
2018-05-25T02:27:09.981Z,80.60
2018-05-25T02:29:37.528Z,81.20
2018-05-25T02:32:05.093Z,80.00
2018-05-25T02:34:32.641Z,80.30
2018-05-25T02:37:00.189Z,80.20
2018-05-25T02:39:27.763Z,80.20
2018-05-25T02:41:55.315Z,80.10
2018-05-25T02:44:22.868Z,80.60
2018-05-25T02:46:50.435Z,81.30
2018-05-25T02:49:17.989Z,82.80
2018-05-25T02:51:45.572Z,82.10
2018-05-25T02:54:13.122Z,80.90
2018-05-25T02:56:40.669Z,80.60
2018-05-25T02:59:08.217Z,82.00
2018-05-25T03:01:35.767Z,81.20
2018-05-25T03:04:03.344Z,80.80
2018-05-25T03:06:30.896Z,80.70
2018-05-25T03:08:58.452Z,81.00
2018-05-25T03:11:26.001Z,80.90
2018-05-25T03:13:53.565Z,81.30
2018-05-25T03:16:21.155Z,82.40
2018-05-25T03:18:48.702Z,81.00
2018-05-25T03:21:16.248Z,81.60
2018-05-25T03:23:43.800Z,82.80
2018-05-25T03:26:11.356Z,81.60
2018-05-25T03:28:38.976Z,80.90
2018-05-25T03:31:06.540Z,81.00
2018-05-25T03:33:34.088Z,82.30
2018-05-25T03:36:02.401Z,83.60
2018-05-25T03:38:29.948Z,83.60
2018-05-25T03:40:57.520Z,82.40
2018-05-25T03:43:25.080Z,81.40
2018-05-25T03:45:52.627Z,85.00
2018-05-25T03:48:20.175Z,84.00
2018-05-25T03:50:47.732Z,81.30
2018-05-25T03:53:15.310Z,78.90
2018-05-25T03:55:42.865Z,90.80
2018-05-25T03:58:10.413Z,91.10
2018-05-25T04:00:49.798Z,92.00
2018-05-25T04:03:17.358Z,81.60
2018-05-25T04:05:45.701Z,86.20
2018-05-25T04:08:13.264Z,86.00
2018-05-25T04:10:40.823Z,89.90
2018-05-25T04:13:08.376Z,85.30
2018-05-25T04:15:35.953Z,87.00
2018-05-25T04:18:04.304Z,83.90
2018-05-25T04:20:31.861Z,84.10
2018-05-25T04:22:59.423Z,82.10
2018-05-25T04:25:27.000Z,88.10
2018-05-25T04:27:54.555Z,90.00
2018-05-25T04:30:22.108Z,90.20
2018-05-25T04:32:49.688Z,90.50
2018-05-25T04:35:17.291Z,90.00
2018-05-25T04:37:44.844Z,90.20
2018-05-25T04:40:12.509Z,90.30
2018-05-25T04:42:40.071Z,90.60
2018-05-25T04:45:07.733Z,90.60
2018-05-25T04:47:35.294Z,90.30
2018-05-25T04:50:02.863Z,89.40
2018-05-25T04:52:30.484Z,88.80
2018-05-25T04:54:58.012Z,85.60
2018-05-25T04:57:25.568Z,82.60
2018-05-25T04:59:53.148Z,78.10
2018-05-25T05:02:21.496Z,77.00
2018-05-25T05:04:49.061Z,77.00
2018-05-25T05:07:16.620Z,81.90
2018-05-25T05:09:44.173Z,79.40
2018-05-25T05:12:11.763Z,75.40
2018-05-25T05:14:39.492Z,73.80
2018-05-25T05:17:07.056Z,71.80
2018-05-25T05:19:34.617Z,67.00
2018-05-25T05:22:02.949Z,67.40
2018-05-25T05:24:30.524Z,67.40
2018-05-25T05:26:58.083Z,63.70
2018-05-25T05:29:25.636Z,65.70
2018-05-25T05:31:53.208Z,64.30
2018-05-25T05:34:20.756Z,61.60
2018-05-25T05:36:48.348Z,62.90
2018-05-25T05:39:16.680Z,60.90
2018-05-25T05:41:44.247Z,60.70
2018-05-25T05:44:11.813Z,57.60
2018-05-25T05:46:39.364Z,57.70
2018-05-25T05:49:06.976Z,57.00
2018-05-25T05:51:34.536Z,54.70
2018-05-25T05:54:02.096Z,53.80
2018-05-25T05:56:29.656Z,53.90
2018-05-25T05:58:57.216Z,52.40
2018-05-25T06:01:24.798Z,52.50
2018-05-25T06:03:52.364Z,53.30
2018-05-25T06:06:19.915Z,51.10
2018-05-25T06:08:47.483Z,50.80
2018-05-25T06:11:15.035Z,51.20
2018-05-25T06:13:42.658Z,48.70
2018-05-25T06:16:10.245Z,49.20
2018-05-25T06:18:37.798Z,47.40
2018-05-25T06:21:05.352Z,50.20
2018-05-25T06:23:32.910Z,46.70
2018-05-25T06:26:00.488Z,45.10
2018-05-25T06:28:28.044Z,43.20
2018-05-25T06:30:55.618Z,44.80
2018-05-25T06:33:23.170Z,43.50
2018-05-25T06:35:50.763Z,40.10
2018-05-25T06:38:18.364Z,44.70
2018-05-25T06:40:45.923Z,42.70
2018-05-25T06:43:13.480Z,41.10
2018-05-25T06:45:41.042Z,42.50
2018-05-25T06:48:08.604Z,40.30
2018-05-25T06:50:36.193Z,38.60
2018-05-25T06:53:03.780Z,41.70
2018-05-25T06:55:32.144Z,40.60
2018-05-25T06:58:00.491Z,39.50
2018-05-25T07:00:28.069Z,39.50
2018-05-25T07:02:55.656Z,39.60
2018-05-25T07:05:23.213Z,41.10
2018-05-25T07:07:50.772Z,42.70
2018-05-25T07:10:18.324Z,37.60
2018-05-25T07:12:45.888Z,38.20
2018-05-25T07:15:14.245Z,38.90
2018-05-25T07:17:41.811Z,38.90
2018-05-25T07:20:09.364Z,39.10
2018-05-25T07:22:36.924Z,41.50
2018-05-25T07:25:05.248Z,38.10
2018-05-25T07:27:32.829Z,38.00
2018-05-25T07:30:00.386Z,40.10
2018-05-25T07:32:27.963Z,41.10
2018-05-25T07:34:55.523Z,36.50
2018-05-25T07:37:23.084Z,39.40
2018-05-25T07:39:50.668Z,36.90
2018-05-25T07:42:18.228Z,38.40
2018-05-25T07:44:45.911Z,36.60
2018-05-25T07:47:13.480Z,38.70
2018-05-25T07:49:41.081Z,38.10
2018-05-25T07:52:08.652Z,37.90
2018-05-25T07:54:36.204Z,34.80
2018-05-25T07:57:04.520Z,35.40
2018-05-25T07:59:32.076Z,35.30
2018-05-25T08:01:59.631Z,33.50
2018-05-25T08:04:27.212Z,38.60
2018-05-25T08:06:54.775Z,38.10
2018-05-25T08:09:22.328Z,34.80
2018-05-25T08:11:49.899Z,36.60
2018-05-25T08:14:17.452Z,38.20
2018-05-25T08:16:45.053Z,34.80
2018-05-25T08:19:12.608Z,36.80
2018-05-25T08:21:40.231Z,34.90
2018-05-25T08:24:07.744Z,37.60
2018-05-25T08:26:35.310Z,34.30
2018-05-25T08:29:02.892Z,35.00
2018-05-25T08:31:30.448Z,35.60
2018-05-25T08:33:57.999Z,35.70
2018-05-25T08:36:25.556Z,34.80
2018-05-25T08:38:53.116Z,33.70
2018-05-25T08:41:20.697Z,34.30
2018-05-25T08:43:48.248Z,34.10
2018-05-25T08:46:15.804Z,34.10
2018-05-25T08:48:43.357Z,35.20
2018-05-25T08:51:10.914Z,34.10
2018-05-25T08:53:38.496Z,33.30
2018-05-25T08:56:06.051Z,31.80
2018-05-25T08:58:33.604Z,34.40
2018-05-25T09:01:01.156Z,33.30
2018-05-25T09:03:30.221Z,32.30
2018-05-25T09:05:57.788Z,32.10
2018-05-25T09:08:25.345Z,29.50
2018-05-25T09:10:52.903Z,32.80
2018-05-25T09:13:20.468Z,30.60
2018-05-25T09:15:48.028Z,30.00
2018-05-25T09:18:15.621Z,31.20
2018-05-25T09:20:43.949Z,30.50
2018-05-25T09:23:11.503Z,30.30
2018-05-25T09:25:39.057Z,29.90
2018-05-25T09:28:06.604Z,31.40
2018-05-25T09:30:34.187Z,31.30
2018-05-25T09:33:01.742Z,32.40
2018-05-25T09:35:29.309Z,30.00
2018-05-25T09:37:56.868Z,28.80
2018-05-25T09:40:24.430Z,30.90
2018-05-25T09:42:52.001Z,32.40
2018-05-25T09:45:19.555Z,29.70
2018-05-25T09:47:47.111Z,31.20
2018-05-25T09:50:14.680Z,31.50
2018-05-25T09:52:46.036Z,31.70
2018-05-25T09:55:13.612Z,32.20
2018-05-25T09:58:00.526Z,33.00
2018-05-25T10:00:28.116Z,32.90
2018-05-25T10:02:55.675Z,31.50
2018-05-25T10:05:23.239Z,33.50
2018-05-25T10:07:50.799Z,29.80
2018-05-25T10:10:18.364Z,31.00
2018-05-25T10:12:45.949Z,30.00
2018-05-25T10:15:13.760Z,31.70
2018-05-25T10:17:41.316Z,30.90
2018-05-25T10:20:08.868Z,31.80
2018-05-25T10:22:36.433Z,32.90
2018-05-25T10:25:04.010Z,32.50
2018-05-25T10:27:31.572Z,31.40
2018-05-25T10:29:59.137Z,30.60
2018-05-25T10:32:26.710Z,31.80
2018-05-25T10:34:54.273Z,33.10
2018-05-25T10:37:21.833Z,30.30
2018-05-25T10:39:49.408Z,32.80
2018-05-25T10:42:16.960Z,30.70
2018-05-25T10:44:44.521Z,31.30
2018-05-25T10:47:12.836Z,30.50
2018-05-25T10:49:40.389Z,30.40
2018-05-25T10:52:07.939Z,31.50
2018-05-25T10:54:35.493Z,31.40
2018-05-25T10:57:03.044Z,31.70
2018-05-25T10:59:30.601Z,31.10
2018-05-25T11:01:58.156Z,31.10
2018-05-25T11:04:25.715Z,29.80
2018-05-25T11:06:53.288Z,32.00
2018-05-25T11:09:20.850Z,29.80
2018-05-25T11:11:48.401Z,30.10
2018-05-25T11:14:15.969Z,31.00
2018-05-25T11:16:43.528Z,31.20
2018-05-25T11:19:11.111Z,30.90
2018-05-25T11:21:38.660Z,31.30
2018-05-25T11:24:06.231Z,31.90
2018-05-25T11:26:33.784Z,31.20
2018-05-25T11:29:01.345Z,29.20
2018-05-25T11:31:28.952Z,31.20
2018-05-25T11:33:57.274Z,29.90
2018-05-25T11:36:24.835Z,29.90
2018-05-25T11:38:52.394Z,31.10
2018-05-25T11:41:19.953Z,31.00
2018-05-25T11:43:47.536Z,30.20
2018-05-25T11:46:15.088Z,31.00
2018-05-25T11:48:42.640Z,33.40
2018-05-25T11:51:10.227Z,31.90
2018-05-25T11:53:37.777Z,30.80
2018-05-25T11:56:05.360Z,31.20
2018-05-25T11:58:32.912Z,29.70
2018-05-25T12:01:01.241Z,30.20
2018-05-25T12:03:28.792Z,30.10
2018-05-25T12:05:56.352Z,29.10
2018-05-25T12:08:23.927Z,29.50
2018-05-25T12:10:51.484Z,31.70
2018-05-25T12:13:19.044Z,31.60
2018-05-25T12:15:46.595Z,31.90
2018-05-25T12:18:14.150Z,30.00
2018-05-25T12:20:41.738Z,31.20
2018-05-25T12:23:10.056Z,30.30
2018-05-25T12:25:37.604Z,30.20
2018-05-25T12:28:05.223Z,29.70
2018-05-25T12:30:32.741Z,29.60
2018-05-25T12:33:00.308Z,31.90
2018-05-25T12:35:27.864Z,30.70
2018-05-25T12:37:56.193Z,29.80
2018-05-25T12:40:24.510Z,30.10
2018-05-25T12:42:52.060Z,30.00
2018-05-25T12:45:19.633Z,30.90
2018-05-25T12:47:47.193Z,30.70
2018-05-25T12:50:14.744Z,30.30
2018-05-25T12:52:42.392Z,31.80
2018-05-25T12:55:09.951Z,29.10
2018-05-25T12:57:37.524Z,30.20
2018-05-25T13:00:05.072Z,29.40
2018-05-25T13:02:32.628Z,30.30
2018-05-25T13:05:00.183Z,30.10
2018-05-25T13:07:27.738Z,30.60
2018-05-25T13:09:55.315Z,31.00
2018-05-25T13:12:22.874Z,32.80
2018-05-25T13:14:50.431Z,30.60
2018-05-25T13:17:17.993Z,29.30
2018-05-25T13:19:45.544Z,31.30
2018-05-25T13:22:13.125Z,30.40
2018-05-25T13:24:40.685Z,31.60
2018-05-25T13:27:08.242Z,30.80
2018-05-25T13:29:35.795Z,30.00
2018-05-25T13:32:03.358Z,30.00
2018-05-25T13:34:30.934Z,32.60
2018-05-25T13:36:59.256Z,30.50
2018-05-25T13:39:26.813Z,30.40
2018-05-25T13:41:54.373Z,32.90
2018-05-25T13:44:21.925Z,31.40
2018-05-25T13:46:49.493Z,31.30
2018-05-25T13:49:17.101Z,31.70
2018-05-25T13:51:44.619Z,31.70
2018-05-25T13:54:12.212Z,32.40
2018-05-25T13:56:39.772Z,32.00
2018-05-25T13:59:07.351Z,32.50
2018-05-25T14:01:34.904Z,34.80
2018-05-25T14:04:02.472Z,32.10
2018-05-25T14:06:30.032Z,33.10
2018-05-25T14:08:57.588Z,33.00
2018-05-25T14:11:25.166Z,33.70
2018-05-25T14:13:52.723Z,32.90
2018-05-25T14:16:20.281Z,33.40
2018-05-25T14:18:47.840Z,33.80
2018-05-25T14:21:15.401Z,33.10
2018-05-25T14:23:42.983Z,33.50
2018-05-25T14:26:10.535Z,33.90
2018-05-25T14:28:38.099Z,34.70
2018-05-25T14:31:05.652Z,34.00
2018-05-25T14:33:33.218Z,35.00
2018-05-25T14:36:00.808Z,34.10
2018-05-25T14:38:29.132Z,35.20
2018-05-25T14:40:56.692Z,35.20
2018-05-25T14:43:24.249Z,35.50
2018-05-25T14:45:51.800Z,33.90
2018-05-25T14:48:19.378Z,34.60
2018-05-25T14:50:47.696Z,35.50
2018-05-25T14:53:15.252Z,35.50
2018-05-25T14:55:43.572Z,34.70
2018-05-25T14:58:11.140Z,34.70
2018-05-25T15:00:38.719Z,35.50
2018-05-25T15:03:06.279Z,35.60
2018-05-25T15:05:33.837Z,34.40
2018-05-25T15:08:01.395Z,35.60
2018-05-25T15:10:28.957Z,35.60
2018-05-25T15:12:56.570Z,36.50
2018-05-25T15:15:24.124Z,35.30
2018-05-25T15:17:51.688Z,35.70
2018-05-25T15:20:19.241Z,36.00
2018-05-25T15:22:46.804Z,36.40
2018-05-25T15:25:14.384Z,36.00
2018-05-25T15:27:41.944Z,35.80
2018-05-25T15:30:09.504Z,35.80
2018-05-25T15:32:37.168Z,35.50
2018-05-25T15:35:04.646Z,35.80
2018-05-25T15:37:32.995Z,36.10
2018-05-25T15:40:00.556Z,36.00
2018-05-25T15:42:28.120Z,37.40
2018-05-25T15:44:55.676Z,35.30
2018-05-25T15:47:23.237Z,36.40
2018-05-25T15:49:50.824Z,35.90
2018-05-25T15:52:19.144Z,35.80
2018-05-25T15:54:46.697Z,35.80
2018-05-25T15:57:14.252Z,36.10
2018-05-25T15:59:41.800Z,35.90
2018-05-25T16:02:09.439Z,36.90
2018-05-25T16:04:36.964Z,36.90
2018-05-25T16:07:04.516Z,36.10
2018-05-25T16:09:32.076Z,38.10
2018-05-25T16:11:59.643Z,36.30
2018-05-25T16:14:27.215Z,37.70
2018-05-25T16:16:55.540Z,36.40
2018-05-25T16:19:23.089Z,36.30
2018-05-25T16:21:51.380Z,37.20
2018-05-25T16:24:18.932Z,37.00
2018-05-25T16:26:46.540Z,36.10
2018-05-25T16:29:14.285Z,38.20
2018-05-25T16:31:41.840Z,37.90
2018-05-25T16:34:09.456Z,37.90
2018-05-25T16:36:37.012Z,36.80
2018-05-25T16:39:04.588Z,36.80
2018-05-25T16:41:32.235Z,37.10
2018-05-25T16:43:59.792Z,36.90
2018-05-25T16:46:27.405Z,36.80
2018-05-25T16:48:54.928Z,37.00
2018-05-25T16:51:22.514Z,37.60
2018-05-25T16:53:50.848Z,37.30
2018-05-25T16:56:18.504Z,37.30
2018-05-25T16:58:46.109Z,38.00
2018-05-25T17:01:13.831Z,37.70
2018-05-25T17:03:41.414Z,38.20
2018-05-25T17:06:08.973Z,37.40
2018-05-25T17:08:36.549Z,38.20
2018-05-25T17:11:04.128Z,37.90
2018-05-25T17:13:31.726Z,37.80
2018-05-25T17:15:59.313Z,37.60
2018-05-25T17:18:26.871Z,38.60
2018-05-25T17:20:54.425Z,38.50
2018-05-25T17:23:21.993Z,38.20
2018-05-25T17:25:49.549Z,38.70
2018-05-25T17:28:17.152Z,38.60
2018-05-25T17:30:44.730Z,38.20
2018-05-25T17:33:12.285Z,39.60
2018-05-25T17:35:39.860Z,38.40
2018-05-25T17:38:09.049Z,38.50
2018-05-25T17:40:36.608Z,38.50
2018-05-25T17:43:04.167Z,38.30
2018-05-25T17:45:31.746Z,38.80
2018-05-25T17:47:59.309Z,39.50
2018-05-25T17:50:26.864Z,38.50
2018-05-25T17:52:54.415Z,39.30
2018-05-25T17:55:22.153Z,38.80
2018-05-25T17:57:49.704Z,38.60
2018-05-25T18:00:17.269Z,40.00
2018-05-25T18:02:44.825Z,39.00
2018-05-25T18:05:13.080Z,39.10
2018-05-25T18:07:40.676Z,39.20
2018-05-25T18:10:08.248Z,39.60
2018-05-25T18:12:35.808Z,40.10
2018-05-25T18:15:03.393Z,39.40
2018-05-25T18:17:31.719Z,40.40
2018-05-25T18:19:59.312Z,40.40
2018-05-25T18:22:26.867Z,41.00
2018-05-25T18:24:54.420Z,41.20
2018-05-25T18:27:22.033Z,41.30
2018-05-25T18:29:49.552Z,41.20
2018-05-25T18:32:17.909Z,41.40
2018-05-25T18:34:45.468Z,41.30
2018-05-25T18:37:13.021Z,41.40
2018-05-25T18:39:40.588Z,41.90
2018-05-25T18:42:08.148Z,41.90
2018-05-25T18:44:36.493Z,42.00
2018-05-25T18:47:04.046Z,42.00
2018-05-25T18:49:31.603Z,42.50
2018-05-25T18:51:59.171Z,42.90
2018-05-25T18:54:32.454Z,43.20
2018-05-25T18:57:00.121Z,43.30
2018-05-25T18:59:27.676Z,43.60
2018-05-25T19:01:55.235Z,43.90
2018-05-25T19:04:22.805Z,44.30
2018-05-25T19:06:50.369Z,44.50
2018-05-25T19:09:17.952Z,45.00
2018-05-25T19:11:45.510Z,45.00
2018-05-25T19:14:13.061Z,45.20
2018-05-25T19:16:40.623Z,45.60
2018-05-25T19:19:08.189Z,45.80
2018-05-25T19:21:36.558Z,47.10
2018-05-25T19:24:04.118Z,47.10
2018-05-25T19:26:31.676Z,47.10
2018-05-25T19:28:59.246Z,46.90
2018-05-25T19:31:27.568Z,47.40
2018-05-25T19:33:55.167Z,47.40
2018-05-25T19:36:22.732Z,47.20
2018-05-25T19:38:50.292Z,47.60
2018-05-25T19:41:18.611Z,47.80
2018-05-25T19:43:46.168Z,47.80
2018-05-25T19:48:42.449Z,48.00
2018-05-25T19:51:10.013Z,48.20
2018-05-25T19:53:37.620Z,48.20
2018-05-25T19:56:05.235Z,48.70
2018-05-25T19:58:32.788Z,48.70
2018-05-25T20:01:00.341Z,50.00
2018-05-25T20:03:27.892Z,50.00
2018-05-25T20:05:55.490Z,50.80
2018-05-25T20:08:23.045Z,51.60
2018-05-25T20:10:50.603Z,51.50
2018-05-25T20:13:18.193Z,51.40
2018-05-25T20:15:45.749Z,52.20
2018-05-25T20:18:15.755Z,52.80
2018-05-25T20:20:46.257Z,52.60
2018-05-25T20:23:15.510Z,53.30
2018-05-25T20:25:45.189Z,53.90
2018-05-25T20:28:14.466Z,53.90
2018-05-25T20:30:44.721Z,55.60
2018-05-25T20:33:13.723Z,55.50
2018-05-25T20:35:43.276Z,55.80
2018-05-25T20:38:13.548Z,55.30
2018-05-25T20:40:43.386Z,55.20
2018-05-25T20:43:13.020Z,55.50
2018-05-25T20:45:40.649Z,56.20
2018-05-25T20:48:08.972Z,57.80
2018-05-25T20:50:36.528Z,57.20
2018-05-25T20:53:04.081Z,58.00
2018-05-25T20:55:31.664Z,58.10
2018-05-25T20:57:59.222Z,58.30
2018-05-25T21:00:26.780Z,58.10
2018-05-25T21:02:54.332Z,58.00
2018-05-25T21:05:21.886Z,58.50
2018-05-25T21:07:49.484Z,59.60
2018-05-25T21:10:17.076Z,58.70
2018-05-25T21:12:44.637Z,59.60
2018-05-25T21:15:12.200Z,59.70
2018-05-25T21:17:39.799Z,62.00
2018-05-25T21:20:07.347Z,62.00
2018-05-25T21:22:34.931Z,62.40
2018-05-25T21:25:02.492Z,62.00
2018-05-25T21:27:30.049Z,63.50
2018-05-25T21:29:57.643Z,62.50
2018-05-25T21:32:25.199Z,67.20
2018-05-25T21:34:52.796Z,66.10
2018-05-25T21:37:20.388Z,65.60
2018-05-25T21:39:47.947Z,66.20
2018-05-25T21:42:15.506Z,67.50
2018-05-25T21:44:43.066Z,71.30
2018-05-25T21:47:10.656Z,70.00
2018-05-25T21:49:38.220Z,69.10
2018-05-25T21:52:05.784Z,69.30
2018-05-25T21:54:33.348Z,69.00
2018-05-25T21:57:00.908Z,70.90
2018-05-25T21:59:28.496Z,69.60
2018-05-25T22:01:56.059Z,70.90
2018-05-25T22:04:23.617Z,70.60
2018-05-25T22:06:51.176Z,71.10
2018-05-25T22:09:18.736Z,73.10
2018-05-25T22:11:46.324Z,72.90
2018-05-25T22:14:13.885Z,73.20
2018-05-25T22:16:42.281Z,71.40
2018-05-25T22:19:09.804Z,71.40
2018-05-25T22:21:37.362Z,72.60
2018-05-25T22:24:04.977Z,73.60
2018-05-25T22:26:32.638Z,71.80
2018-05-25T22:29:00.215Z,70.80
2018-05-25T22:31:27.775Z,72.70
2018-05-25T22:33:55.339Z,72.80
2018-05-25T22:36:22.924Z,72.40
2018-05-25T22:38:50.484Z,73.30
2018-05-25T22:41:18.052Z,74.00
2018-05-25T22:43:58.104Z,74.10
2018-05-25T22:46:38.126Z,76.00
2018-05-25T22:49:17.632Z,75.90
2018-05-25T22:51:57.062Z,75.40
2018-05-25T22:54:34.209Z,76.60
2018-05-25T22:57:01.805Z,76.90
2018-05-25T22:59:29.364Z,76.60
2018-05-25T23:01:56.924Z,77.20
2018-05-25T23:04:24.495Z,75.60
2018-05-25T23:06:52.052Z,75.90
2018-05-25T23:09:19.608Z,78.80
2018-05-25T23:11:47.196Z,80.50
2018-05-25T23:14:14.753Z,78.60
2018-05-25T23:16:42.308Z,78.40
2018-05-25T23:19:09.868Z,74.70
2018-05-25T23:21:37.424Z,75.30
2018-05-25T23:24:04.977Z,75.70
2018-05-25T23:26:32.531Z,77.50
2018-05-25T23:29:00.090Z,75.80
2018-05-25T23:31:27.654Z,76.80
2018-05-25T23:33:55.209Z,79.50
2018-05-25T23:36:22.769Z,77.90
2018-05-25T23:38:50.360Z,77.90
2018-05-25T23:41:17.916Z,77.00
2018-05-25T23:43:45.473Z,76.90
2018-05-25T23:46:13.034Z,76.60
2018-05-25T23:48:40.594Z,77.40
2018-05-25T23:51:08.178Z,78.70
2018-05-25T23:53:35.727Z,80.20
2018-05-25T23:56:03.280Z,80.50
2018-05-25T23:58:30.829Z,80.20
